Time;durP1;ratioP1;P1;durP2;ratioP2;P2;SDS_P1;SDS_P2;PMS_P1;PMS_P2;Temp;Humidity;BMP_temperature;BMP_pressure;BME280_temperature;BME280_humidity;BME280_pressure;Samples;Min_cycle;Max_cycle;Signal;HPM_P1;HPM_P2
2023/12/24 00:00:03;;;;;;;0.35;0.35;;;10.80;99.90;;;;;;5011727;28;20404;-68
2023/12/24 00:02:29;;;;;;;0.60;0.43;;;10.80;99.90;;;;;;5014628;28;20120;-69
2023/12/24 00:04:54;;;;;;;0.70;0.50;;;10.80;99.90;;;;;;5014317;28;20140;-69
2023/12/24 00:07:20;;;;;;;0.30;0.30;;;10.80;99.90;;;;;;5030954;28;20026;-68
2023/12/24 00:09:46;;;;;;;5.72;0.30;;;10.70;99.90;;;;;;5014450;28;20080;-68
2023/12/24 00:12:12;;;;;;;0.75;0.50;;;10.70;99.90;;;;;;5030183;28;20095;-68
2023/12/24 00:14:38;;;;;;;2.75;0.30;;;10.70;99.90;;;;;;5014311;28;20029;-68
2023/12/24 00:17:03;;;;;;;0.38;0.20;;;10.70;99.90;;;;;;5013266;28;20025;-68
2023/12/24 00:19:32;;;;;;;0.70;0.40;;;10.60;99.90;;;;;;5014244;28;20388;-68
2023/12/24 00:21:57;;;;;;;0.10;0.10;;;10.60;99.90;;;;;;5013845;28;20040;-68
2023/12/24 00:24:23;;;;;;;1.25;0.60;;;10.60;99.90;;;;;;5013878;28;20104;-67
2023/12/24 00:26:49;;;;;;;0.20;0.20;;;10.60;99.90;;;;;;5011977;28;20041;-68
2023/12/24 00:29:15;;;;;;;1.25;0.68;;;10.60;99.90;;;;;;5013345;28;20021;-69
2023/12/24 00:31:40;;;;;;;0.75;0.22;;;10.60;99.90;;;;;;5027625;28;20037;-68
2023/12/24 00:34:06;;;;;;;0.45;0.38;;;10.60;99.90;;;;;;5013739;28;20022;-68
2023/12/24 00:36:32;;;;;;;2.10;0.40;;;10.60;99.90;;;;;;5012547;28;20043;-68
2023/12/24 00:38:57;;;;;;;0.45;0.22;;;10.70;99.90;;;;;;4995830;28;20026;-68
2023/12/24 00:41:23;;;;;;;1.05;0.28;;;10.70;99.90;;;;;;5009253;28;20044;-68
2023/12/24 00:43:49;;;;;;;1.13;0.47;;;10.70;99.90;;;;;;5015607;28;20033;-69
2023/12/24 00:46:16;;;;;;;0.90;0.52;;;10.70;99.90;;;;;;5013279;28;20029;-68
2023/12/24 00:48:42;;;;;;;0.60;0.45;;;10.70;99.90;;;;;;5013783;28;20080;-68
2023/12/24 00:51:08;;;;;;;11.35;0.93;;;10.60;99.90;;;;;;5011706;28;20041;-68
2023/12/24 00:53:36;;;;;;;0.60;0.50;;;10.70;99.90;;;;;;5013529;28;20025;-68
2023/12/24 00:56:02;;;;;;;0.73;0.57;;;10.70;99.90;;;;;;4997397;28;20044;-68
2023/12/24 00:58:28;;;;;;;1.70;0.30;;;10.70;99.90;;;;;;5014534;28;20026;-68
2023/12/24 01:00:53;;;;;;;0.15;0.15;;;10.70;99.90;;;;;;5011388;28;20049;-68
2023/12/24 01:03:20;;;;;;;0.10;0.10;;;10.70;99.90;;;;;;5026649;28;20062;-68
2023/12/24 01:05:45;;;;;;;1.65;0.38;;;10.70;99.90;;;;;;5010748;28;20026;-69
2023/12/24 01:08:11;;;;;;;0.68;0.30;;;10.70;99.90;;;;;;5010048;28;20031;-68
2023/12/24 01:10:37;;;;;;;0.68;0.38;;;10.70;99.90;;;;;;5026408;28;20017;-68
2023/12/24 01:13:03;;;;;;;0.88;0.52;;;10.70;99.90;;;;;;5010914;28;20060;-69
2023/12/24 01:15:28;;;;;;;0.38;0.38;;;10.70;99.90;;;;;;5029613;28;20048;-69
2023/12/24 01:17:54;;;;;;;0.50;0.38;;;10.70;99.90;;;;;;5012108;28;20062;-68
2023/12/24 01:20:21;;;;;;;0.35;0.30;;;10.70;99.90;;;;;;5026367;28;20029;-68
2023/12/24 01:22:47;;;;;;;0.75;0.30;;;10.60;99.90;;;;;;5028545;28;20025;-68
2023/12/24 01:25:13;;;;;;;0.95;0.73;;;10.60;99.90;;;;;;5006840;28;20029;-68
2023/12/24 01:27:39;;;;;;;0.65;0.35;;;10.60;99.90;;;;;;4997258;28;20030;-68
2023/12/24 01:30:06;;;;;;;1.23;0.50;;;10.50;99.90;;;;;;5009889;28;20061;-68
2023/12/24 01:32:34;;;;;;;0.30;0.30;;;10.50;99.90;;;;;;5028455;28;20059;-68
2023/12/24 01:35:00;;;;;;;0.68;0.40;;;10.50;99.90;;;;;;5011092;28;20037;-69
2023/12/24 01:37:28;;;;;;;0.68;0.40;;;10.50;99.90;;;;;;5026053;28;20374;-69
2023/12/24 01:39:54;;;;;;;0.68;0.55;;;10.50;99.90;;;;;;4995827;28;20041;-69
2023/12/24 01:42:20;;;;;;;0.17;0.10;;;10.50;99.90;;;;;;5008411;28;20611;-69
2023/12/24 01:44:46;;;;;;;0.52;0.43;;;10.50;99.90;;;;;;5024461;28;20088;-69
2023/12/24 01:47:12;;;;;;;0.35;0.30;;;10.50;99.90;;;;;;5006779;28;20037;-69
2023/12/24 01:49:38;;;;;;;3.53;0.43;;;10.50;99.90;;;;;;5012785;28;20040;-69
2023/12/24 01:52:05;;;;;;;0.45;0.22;;;10.50;99.90;;;;;;5026605;28;20462;-69
2023/12/24 01:54:32;;;;;;;0.28;0.20;;;10.60;99.90;;;;;;5026089;28;20021;-69
2023/12/24 01:56:59;;;;;;;1.27;0.45;;;10.50;99.90;;;;;;5008596;28;20355;-69
2023/12/24 01:59:26;;;;;;;2.63;0.52;;;10.50;99.90;;;;;;5012861;28;20029;-69
2023/12/24 02:01:52;;;;;;;0.20;0.20;;;10.50;99.90;;;;;;5010237;28;20555;-69
2023/12/24 02:04:18;;;;;;;0.75;0.40;;;10.50;99.90;;;;;;4994579;28;20025;-69
2023/12/24 02:06:44;;;;;;;2.63;0.30;;;10.50;99.90;;;;;;5008363;28;20167;-69
2023/12/24 02:09:12;;;;;;;1.85;0.43;;;10.60;99.90;;;;;;5012470;28;20481;-69
2023/12/24 02:11:38;;;;;;;0.22;0.20;;;10.60;99.90;;;;;;4995685;28;20029;-69
2023/12/24 02:14:03;;;;;;;0.57;0.20;;;10.60;99.90;;;;;;5029944;28;20032;-69
2023/12/24 02:16:36;;;;;;;0.20;0.20;;;10.50;99.90;;;;;;5031955;28;20052;-68
2023/12/24 02:19:03;;;;;;;0.35;0.30;;;10.50;99.90;;;;;;5033770;28;20028;-67
2023/12/24 02:21:29;;;;;;;0.52;0.30;;;10.50;99.90;;;;;;5033495;28;20397;-68
2023/12/24 02:23:54;;;;;;;0.10;0.10;;;10.50;99.90;;;;;;5033323;28;20029;-68
2023/12/24 02:26:34;;;;;;;0.10;0.10;;;10.50;99.90;;;;;;5033085;28;20039;-67
2023/12/24 02:29:08;;;;;;;0.50;0.22;;;10.50;99.90;;;;;;5033894;28;20029;-68
2023/12/24 02:31:41;;;;;;;0.10;0.10;;;10.40;99.90;;;;;;5012332;28;20030;-70
2023/12/24 02:34:09;;;;;;;0.47;0.20;;;10.40;99.90;;;;;;4999058;28;20025;-68
2023/12/24 02:36:35;;;;;;;0.15;0.15;;;10.40;99.90;;;;;;5013943;28;20032;-69
2023/12/24 02:39:02;;;;;;;1.23;0.30;;;10.40;99.90;;;;;;5015901;28;20021;-69
2023/12/24 02:41:28;;;;;;;0.13;0.13;;;10.40;99.90;;;;;;5031677;28;20033;-69
2023/12/24 02:43:53;;;;;;;0.30;0.25;;;10.30;99.90;;;;;;5015440;28;20022;-69
2023/12/24 02:46:19;;;;;;;0.22;0.20;;;10.30;99.90;;;;;;5015481;28;20037;-69
2023/12/24 02:48:45;;;;;;;0.32;0.20;;;10.30;99.90;;;;;;5033682;28;20033;-69
2023/12/24 02:51:10;;;;;;;0.45;0.30;;;10.30;99.90;;;;;;5031379;28;20032;-69
2023/12/24 02:53:36;;;;;;;1.25;0.13;;;10.30;99.90;;;;;;5015769;28;20029;-69
2023/12/24 02:56:04;;;;;;;0.08;0.08;;;10.20;99.90;;;;;;5013644;28;20037;-67
2023/12/24 02:58:30;;;;;;;0.10;0.10;;;10.20;99.90;;;;;;5031174;28;20025;-68
2023/12/24 03:00:56;;;;;;;0.30;0.20;;;10.10;99.90;;;;;;5013438;28;20116;-67
2023/12/24 03:03:21;;;;;;;0.20;0.20;;;10.10;99.90;;;;;;5032802;28;20021;-68
2023/12/24 03:05:47;;;;;;;0.08;0.08;;;10.20;99.90;;;;;;5015008;28;20385;-69
2023/12/24 03:08:14;;;;;;;0.10;0.10;;;10.20;99.90;;;;;;5013827;28;20032;-68
2023/12/24 03:10:40;;;;;;;0.13;0.13;;;10.20;99.90;;;;;;5029350;28;20049;-68
2023/12/24 03:13:06;;;;;;;0.30;0.30;;;10.20;99.90;;;;;;5015133;28;20079;-68
2023/12/24 03:15:31;;;;;;;0.20;0.20;;;10.20;99.90;;;;;;5013529;28;20026;-68
2023/12/24 03:17:57;;;;;;;1.38;0.28;;;10.20;99.90;;;;;;5031778;28;20033;-68
2023/12/24 03:20:23;;;;;;;0.20;0.20;;;10.10;99.90;;;;;;5030508;28;20052;-68
2023/12/24 03:22:49;;;;;;;0.10;0.10;;;10.10;99.90;;;;;;5035298;28;20087;-68
2023/12/24 03:25:14;;;;;;;0.20;0.20;;;10.10;99.90;;;;;;5014035;28;20029;-68
2023/12/24 03:27:40;;;;;;;0.68;0.35;;;10.20;99.90;;;;;;5030404;28;20061;-68
2023/12/24 03:30:07;;;;;;;1.02;0.47;;;10.20;99.90;;;;;;5031980;28;20029;-69
2023/12/24 03:32:32;;;;;;;0.75;0.38;;;10.20;99.90;;;;;;5035010;28;20072;-68
2023/12/24 03:34:58;;;;;;;9.95;0.95;;;10.20;99.90;;;;;;5032209;28;20051;-68
2023/12/24 03:37:24;;;;;;;1.10;0.35;;;10.20;99.90;;;;;;5032131;28;20507;-68
2023/12/24 03:39:49;;;;;;;0.40;0.30;;;10.30;99.90;;;;;;5015237;28;20044;-68
2023/12/24 03:42:15;;;;;;;0.90;0.70;;;10.30;99.90;;;;;;5031204;28;20084;-67
2023/12/24 03:44:41;;;;;;;0.57;0.30;;;10.30;99.90;;;;;;5029977;28;20539;-67
2023/12/24 03:47:07;;;;;;;1.15;0.43;;;10.30;99.90;;;;;;5032265;28;20037;-68
2023/12/24 03:49:32;;;;;;;0.77;0.43;;;10.40;99.90;;;;;;5014621;28;20056;-68
2023/12/24 03:51:58;;;;;;;1.80;0.60;;;10.40;99.90;;;;;;5031719;28;20100;-68
2023/12/24 03:54:24;;;;;;;0.20;0.20;;;10.40;99.90;;;;;;5031058;28;20124;-69
2023/12/24 03:56:50;;;;;;;0.57;0.40;;;10.40;99.90;;;;;;5028687;28;20021;-69
2023/12/24 03:59:16;;;;;;;1.80;0.68;;;10.40;99.90;;;;;;5012390;28;20413;-69
2023/12/24 04:01:43;;;;;;;0.52;0.38;;;10.30;99.90;;;;;;4998321;28;20073;-69
2023/12/24 04:04:09;;;;;;;5.78;0.88;;;10.30;99.90;;;;;;5014619;28;20452;-69
2023/12/24 04:06:35;;;;;;;1.70;0.70;;;10.40;99.90;;;;;;5014585;28;20108;-68
2023/12/24 04:49:59;;;;;;;0.10;0.10;;;10.30;99.90;;;;;;5031597;28;20034;-68
2023/12/24 04:52:24;;;;;;;0.20;0.20;;;10.20;99.90;;;;;;5031129;28;20037;-68
2023/12/24 04:54:50;;;;;;;0.55;0.20;;;10.10;99.90;;;;;;5031016;28;20029;-68
2023/12/24 04:57:16;;;;;;;0.20;0.20;;;10.10;99.90;;;;;;5029580;28;20084;-69
2023/12/24 04:59:42;;;;;;;0.10;0.10;;;10.10;99.90;;;;;;5031458;28;20049;-68
2023/12/24 05:02:10;;;;;;;0.32;0.30;;;10.10;99.90;;;;;;5029231;28;20033;-68
2023/12/24 05:04:36;;;;;;;0.10;0.10;;;10.10;99.90;;;;;;5031063;28;20025;-68
2023/12/24 05:07:02;;;;;;;0.20;0.20;;;10.10;99.90;;;;;;5028900;28;20083;-68
2023/12/24 05:09:28;;;;;;;0.55;0.30;;;10.20;99.90;;;;;;5031368;28;20022;-68
2023/12/24 05:11:53;;;;;;;0.17;0.17;;;10.20;99.90;;;;;;5011564;28;20390;-68
2023/12/24 05:14:20;;;;;;;0.63;0.32;;;10.30;99.90;;;;;;5030775;28;20068;-68
2023/12/24 05:16:45;;;;;;;0.88;0.40;;;10.20;99.90;;;;;;5008180;28;20060;-69
2023/12/24 05:19:11;;;;;;;0.10;0.10;;;10.20;99.90;;;;;;5031016;28;20033;-69
2023/12/24 05:21:37;;;;;;;0.10;0.10;;;10.20;99.90;;;;;;5031049;28;20633;-69
2023/12/24 05:24:03;;;;;;;1.85;0.20;;;10.20;99.90;;;;;;5012740;28;20117;-69
2023/12/24 05:26:28;;;;;;;0.10;0.10;;;10.20;99.90;;;;;;5030999;28;20392;-71
2023/12/24 05:28:54;;;;;;;0.32;0.20;;;10.20;99.90;;;;;;5032930;28;20040;-68
2023/12/24 05:31:20;;;;;;;0.10;0.10;;;10.20;99.90;;;;;;5029094;28;20026;-68
2023/12/24 05:33:45;;;;;;;0.13;0.13;;;10.10;99.90;;;;;;5030752;28;20079;-68
2023/12/24 05:36:14;;;;;;;0.10;0.10;;;10.10;99.90;;;;;;5010291;28;20061;-68
2023/12/24 05:38:41;;;;;;;0.10;0.10;;;10.20;99.90;;;;;;5031250;28;20036;-68
2023/12/24 05:41:10;;;;;;;0.40;0.20;;;10.10;99.90;;;;;;5012670;28;20704;-67
2023/12/24 05:43:36;;;;;;;0.13;0.10;;;10.20;99.90;;;;;;5030784;28;20044;-68
2023/12/24 05:46:04;;;;;;;0.00;0.00;;;10.10;99.90;;;;;;5030499;28;20056;-69
2023/12/24 05:48:30;;;;;;;0.20;0.20;;;10.10;99.90;;;;;;5028562;28;20125;-69
2023/12/24 05:50:55;;;;;;;0.25;0.25;;;10.10;99.90;;;;;;5028547;28;20436;-68
2023/12/24 05:53:21;;;;;;;0.20;0.20;;;10.10;99.90;;;;;;5033890;28;20030;-68
2023/12/24 05:55:47;;;;;;;0.13;0.10;;;10.10;99.90;;;;;;5030012;28;20041;-68
2023/12/24 05:58:12;;;;;;;0.00;0.00;;;10.10;99.90;;;;;;5035007;28;20022;-68
2023/12/24 06:00:38;;;;;;;0.10;0.10;;;10.10;99.90;;;;;;5031922;28;20034;-69
2023/12/24 06:03:04;;;;;;;0.40;0.25;;;10.10;99.90;;;;;;5034177;28;20037;-68
2023/12/24 06:05:30;;;;;;;0.10;0.10;;;10.10;99.90;;;;;;5034230;28;20033;-68
2023/12/24 06:07:55;;;;;;;0.05;0.05;;;10.10;99.90;;;;;;5034685;28;20045;-68
2023/12/24 06:10:21;;;;;;;0.68;0.30;;;10.10;99.90;;;;;;5016667;28;20030;-68
2023/12/24 06:12:53;;;;;;;0.32;0.20;;;10.10;99.90;;;;;;5034714;28;20032;-68
2023/12/24 06:15:18;;;;;;;0.05;0.05;;;10.00;99.90;;;;;;5031644;28;20031;-68
2023/12/24 06:17:44;;;;;;;0.10;0.10;;;10.00;99.90;;;;;;5031428;28;20108;-68
2023/12/24 06:20:10;;;;;;;0.15;0.15;;;10.10;99.90;;;;;;5033584;28;20048;-68
2023/12/24 06:22:36;;;;;;;1.40;0.28;;;10.10;99.90;;;;;;5015163;28;20424;-68
2023/12/24 06:25:02;;;;;;;0.60;0.35;;;10.10;99.90;;;;;;5015955;28;20117;-69
2023/12/24 06:27:28;;;;;;;0.30;0.28;;;10.10;99.90;;;;;;5030695;28;20044;-68
2023/12/24 06:29:54;;;;;;;0.35;0.20;;;10.10;99.90;;;;;;5034240;28;20044;-68
2023/12/24 06:32:20;;;;;;;0.00;0.00;;;10.20;99.90;;;;;;5033103;28;20029;-68
2023/12/24 06:34:46;;;;;;;0.60;0.28;;;10.20;99.90;;;;;;5026610;28;20088;-70
2023/12/24 06:37:12;;;;;;;0.30;0.20;;;10.30;99.90;;;;;;5029370;28;20029;-67
2023/12/24 06:39:39;;;;;;;0.40;0.20;;;10.30;99.90;;;;;;5027885;28;20037;-67
2023/12/24 06:42:05;;;;;;;0.10;0.10;;;10.30;99.90;;;;;;5028171;28;20487;-67
2023/12/24 06:44:30;;;;;;;4.72;0.40;;;10.20;99.90;;;;;;5027650;28;20017;-67
2023/12/24 06:46:56;;;;;;;0.10;0.10;;;10.10;99.90;;;;;;4998630;28;20032;-67
2023/12/24 06:49:22;;;;;;;0.10;0.10;;;10.10;99.90;;;;;;5032389;28;20044;-66
2023/12/24 06:51:48;;;;;;;0.28;0.20;;;10.00;99.90;;;;;;5028177;28;20029;-66
2023/12/24 06:54:13;;;;;;;0.20;0.20;;;10.10;99.90;;;;;;5025391;28;20104;-66
2023/12/24 06:56:39;;;;;;;0.28;0.10;;;10.00;99.90;;;;;;5028036;28;20543;-66
2023/12/24 06:59:05;;;;;;;0.10;0.10;;;10.00;99.90;;;;;;5032140;28;20136;-66
2023/12/24 07:01:31;;;;;;;7.78;0.30;;;10.00;99.90;;;;;;5033210;28;20477;-67
2023/12/24 07:03:57;;;;;;;1.55;0.65;;;9.90;99.90;;;;;;5031083;28;20033;-67
2023/12/24 07:06:23;;;;;;;0.35;0.35;;;9.90;99.90;;;;;;5033201;28;20469;-67
2023/12/24 07:08:49;;;;;;;0.55;0.20;;;9.90;99.90;;;;;;5033673;28;20497;-67
2023/12/24 07:11:14;;;;;;;0.55;0.13;;;9.80;99.90;;;;;;5027985;28;20055;-66
2023/12/24 07:13:40;;;;;;;0.85;0.25;;;9.80;99.90;;;;;;5033742;28;20029;-67
2023/12/24 07:16:08;;;;;;;0.68;0.22;;;9.80;99.90;;;;;;5032395;28;20030;-69
2023/12/24 07:18:33;;;;;;;0.60;0.25;;;9.70;99.90;;;;;;5033685;28;20360;-67
2023/12/24 07:20:59;;;;;;;0.13;0.13;;;9.70;99.90;;;;;;5028003;28;20038;-67
2023/12/24 07:23:25;;;;;;;0.10;0.10;;;9.70;99.90;;;;;;5033387;28;20112;-66
2023/12/24 07:25:50;;;;;;;0.03;0.03;;;9.70;99.90;;;;;;5027668;28;20030;-66
2023/12/24 07:28:16;;;;;;;1.40;0.15;;;9.70;99.90;;;;;;5033193;28;20032;-67
2023/12/24 07:30:42;;;;;;;0.10;0.10;;;9.70;99.90;;;;;;5028471;28;20045;-66
2023/12/24 07:33:07;;;;;;;0.10;0.10;;;9.70;99.90;;;;;;5032189;28;20030;-67
2023/12/24 07:35:33;;;;;;;0.00;0.00;;;9.80;99.90;;;;;;5011695;28;20389;-66
2023/12/24 07:37:59;;;;;;;0.50;0.40;;;9.80;99.90;;;;;;5026395;28;20091;-67
2023/12/24 07:40:27;;;;;;;0.10;0.10;;;9.80;99.90;;;;;;5032772;28;20977;-66
2023/12/24 07:42:53;;;;;;;0.20;0.10;;;9.80;99.90;;;;;;5032540;28;20116;-66
2023/12/24 08:12:13;;;;;;;0.10;0.10;;;9.50;99.90;;;;;;5031341;28;20430;-67
2023/12/24 08:14:39;;;;;;;0.10;0.10;;;9.50;99.90;;;;;;5029335;28;20037;-68
2023/12/24 08:17:05;;;;;;;2.08;0.20;;;9.40;99.90;;;;;;5013362;28;20472;-67
2023/12/24 08:19:30;;;;;;;0.10;0.10;;;9.30;99.90;;;;;;5014448;28;20163;-68
2023/12/24 08:21:56;;;;;;;0.75;0.20;;;9.40;99.90;;;;;;5031490;28;20040;-67
2023/12/24 08:24:22;;;;;;;0.22;0.10;;;9.40;99.90;;;;;;5031705;28;20028;-69
2023/12/24 08:51:54;;;;;;;0.10;0.10;;;9.40;99.90;;;;;;4968218;28;20069;-49
2023/12/24 08:54:19;;;;;;;0.10;0.10;;;9.30;99.90;;;;;;4971801;28;20047;-47
2023/12/24 08:56:45;;;;;;;0.60;0.52;;;9.30;99.90;;;;;;5043702;23;20544;-56
2023/12/24 08:59:15;;;;;;;0.10;0.10;;;9.40;99.90;;;;;;5023207;28;20140;-68
2023/12/24 09:01:45;;;;;;;0.65;0.35;;;9.40;99.90;;;;;;5030320;28;20033;-68
2023/12/24 09:04:11;;;;;;;0.10;0.10;;;9.40;99.90;;;;;;5031097;28;20342;-69
2023/12/24 09:06:37;;;;;;;0.10;0.10;;;9.50;99.90;;;;;;5012922;28;20103;-69
2023/12/24 09:09:04;;;;;;;0.22;0.22;;;9.50;99.90;;;;;;5029828;28;20449;-69
2023/12/24 09:11:30;;;;;;;0.32;0.17;;;9.50;99.90;;;;;;5012948;28;20123;-69
2023/12/24 09:13:55;;;;;;;0.10;0.10;;;9.50;99.90;;;;;;5031182;28;20473;-69
2023/12/24 09:16:21;;;;;;;1.08;0.20;;;9.50;99.90;;;;;;5026166;28;20030;-69
2023/12/24 09:18:47;;;;;;;0.10;0.10;;;9.50;99.90;;;;;;5013077;28;20452;-69
2023/12/24 09:21:12;;;;;;;0.05;0.00;;;9.60;99.90;;;;;;5030071;28;20373;-67
2023/12/24 09:23:38;;;;;;;0.10;0.10;;;9.60;99.90;;;;;;5031179;28;20064;-67
2023/12/24 09:26:04;;;;;;;0.20;0.20;;;9.60;99.90;;;;;;5029432;28;20516;-67
2023/12/24 09:28:30;;;;;;;1.05;0.38;;;9.70;99.90;;;;;;5030012;28;20056;-67
2023/12/24 09:30:57;;;;;;;0.43;0.10;;;9.70;99.90;;;;;;5026694;28;20040;-68
2023/12/24 09:33:22;;;;;;;0.08;0.08;;;9.70;99.90;;;;;;5026483;28;20022;-67
2023/12/24 09:35:49;;;;;;;0.08;0.08;;;9.80;99.90;;;;;;5023930;28;20113;-67
2023/12/24 09:38:15;;;;;;;0.10;0.10;;;9.80;99.90;;;;;;5025970;28;20544;-67
2023/12/24 09:40:41;;;;;;;0.25;0.10;;;9.80;99.90;;;;;;5018654;28;20085;-67
2023/12/24 09:43:07;;;;;;;0.10;0.08;;;9.90;99.90;;;;;;5013266;28;20037;-68
2023/12/24 09:45:34;;;;;;;0.95;0.13;;;10.00;99.90;;;;;;5029360;28;20038;-69
2023/12/24 09:48:00;;;;;;;0.98;0.15;;;10.00;99.90;;;;;;5013637;28;20040;-69
2023/12/24 09:50:26;;;;;;;0.30;0.28;;;10.00;99.90;;;;;;5027844;28;20034;-71
2023/12/24 09:52:53;;;;;;;0.10;0.10;;;10.00;99.90;;;;;;5013331;28;20392;-71
2023/12/24 09:55:18;;;;;;;0.10;0.10;;;10.00;99.90;;;;;;5008720;28;20030;-71
2023/12/24 09:57:44;;;;;;;0.20;0.20;;;10.00;99.90;;;;;;5006550;28;20045;-70
2023/12/24 10:00:11;;;;;;;1.13;0.32;;;9.90;99.90;;;;;;5022210;28;20057;-71
2023/12/24 10:02:37;;;;;;;0.35;0.20;;;9.90;99.90;;;;;;5011853;28;20037;-71
2023/12/24 10:05:03;;;;;;;0.10;0.10;;;9.90;99.90;;;;;;5021282;28;20038;-71
2023/12/24 10:07:40;;;;;;;0.10;0.10;;;9.80;99.90;;;;;;5028588;28;20037;-71
2023/12/24 10:10:11;;;;;;;0.10;0.10;;;9.80;99.90;;;;;;5013002;28;20029;-71
2023/12/24 10:12:37;;;;;;;0.20;0.20;;;9.90;99.90;;;;;;5028427;28;20033;-70
2023/12/24 10:15:03;;;;;;;0.75;0.63;;;9.90;99.90;;;;;;5013015;28;20048;-71
2023/12/24 10:17:31;;;;;;;0.00;0.00;;;9.90;99.90;;;;;;5026834;28;20038;-69
2023/12/24 10:19:58;;;;;;;0.10;0.10;;;9.90;99.90;;;;;;5008303;28;20040;-70
2023/12/24 10:22:25;;;;;;;0.00;0.00;;;9.90;99.90;;;;;;5011506;28;20037;-70
2023/12/24 10:25:06;;;;;;;0.10;0.10;;;9.90;99.90;;;;;;5012283;28;20049;-70
2023/12/24 10:27:32;;;;;;;0.05;0.05;;;9.90;99.90;;;;;;5025588;28;20033;-69
2023/12/24 10:30:13;;;;;;;0.63;0.25;;;10.00;99.90;;;;;;5011338;28;20469;-70
2023/12/24 10:32:43;;;;;;;0.28;0.28;;;10.00;99.90;;;;;;5010516;28;20037;-70
2023/12/24 10:35:09;;;;;;;1.10;0.60;;;10.00;99.90;;;;;;5012444;28;20118;-70
2023/12/24 10:37:35;;;;;;;0.28;0.20;;;10.10;99.90;;;;;;5008470;28;20041;-69
2023/12/24 10:40:10;;;;;;;0.32;0.20;;;10.20;99.90;;;;;;5021691;28;20041;-69
2023/12/24 10:42:40;;;;;;;0.10;0.10;;;10.30;99.90;;;;;;5032363;28;20053;-69
2023/12/24 10:45:11;;;;;;;0.10;0.10;;;10.40;99.90;;;;;;5015271;28;20113;-70
2023/12/24 10:47:38;;;;;;;0.10;0.10;;;10.50;99.90;;;;;;5015396;28;20481;-68
2023/12/24 10:50:04;;;;;;;0.15;0.10;;;10.60;99.90;;;;;;5033028;28;20033;-76
2023/12/24 10:52:31;;;;;;;3.97;0.28;;;10.70;99.90;;;;;;4999067;28;20026;-73
2023/12/24 10:54:59;;;;;;;3.53;0.20;;;10.80;99.90;;;;;;5013704;28;20477;-69
2023/12/24 10:58:24;;;;;;;0.43;0.20;;;10.90;99.90;;;;;;5013048;28;20033;-66
2023/12/24 11:00:50;;;;;;;0.00;0.00;;;10.90;99.90;;;;;;4990940;28;20037;-66
2023/12/24 11:03:47;;;;;;;0.08;0.08;;;10.80;99.90;;;;;;4991510;28;20393;-71
2023/12/24 11:06:36;;;;;;;0.10;0.10;;;10.90;99.90;;;;;;4987299;28;20400;-66
2023/12/24 11:09:29;;;;;;;0.55;0.20;;;10.80;99.90;;;;;;4985968;28;20081;-66
2023/12/24 11:11:57;;;;;;;0.32;0.17;;;10.80;99.90;;;;;;4985199;28;20144;-66
2023/12/24 11:14:45;;;;;;;0.00;0.00;;;10.90;99.90;;;;;;4991221;28;20127;-66
2023/12/24 11:17:33;;;;;;;0.55;0.25;;;10.90;99.90;;;;;;4967117;28;20537;-65
2023/12/24 11:20:26;;;;;;;0.10;0.10;;;10.90;99.90;;;;;;4991028;28;20039;-67
2023/12/24 11:23:18;;;;;;;0.30;0.28;;;10.90;99.90;;;;;;4981808;28;20042;-67
2023/12/24 11:25:50;;;;;;;0.10;0.10;;;10.90;99.90;;;;;;4978905;28;20046;-66
2023/12/24 11:28:25;;;;;;;0.08;0.08;;;10.90;99.90;;;;;;4959871;28;20026;-67
2023/12/24 11:30:53;;;;;;;0.20;0.20;;;10.90;99.90;;;;;;4993240;28;20063;-67
2023/12/24 11:33:28;;;;;;;0.00;0.00;;;10.90;99.90;;;;;;5019427;28;20039;-67
2023/12/24 11:35:56;;;;;;;0.03;0.03;;;10.90;99.90;;;;;;5021349;28;20061;-66
2023/12/24 12:08:30;;;;;;;0.10;0.10;;;11.10;99.90;;;;;;5018595;28;20038;-66
2023/12/24 12:10:57;;;;;;;0.68;0.22;;;11.10;99.90;;;;;;5018485;28;20040;-66
2023/12/24 12:13:24;;;;;;;0.10;0.10;;;11.10;99.90;;;;;;5001715;28;20072;-67
2023/12/24 12:15:50;;;;;;;0.00;0.00;;;11.10;99.90;;;;;;5007666;28;20432;-66
2023/12/24 12:18:16;;;;;;;0.25;0.17;;;11.10;99.90;;;;;;5018869;28;20125;-66
2023/12/24 12:20:45;;;;;;;0.00;0.00;;;11.00;99.90;;;;;;4998841;28;20041;-66
2023/12/24 12:23:12;;;;;;;0.10;0.10;;;11.10;99.90;;;;;;5018595;28;20789;-66
2023/12/24 12:25:38;;;;;;;0.28;0.20;;;11.10;99.90;;;;;;5018868;28;20515;-66
2023/12/24 12:28:04;;;;;;;0.20;0.20;;;11.10;99.90;;;;;;5005296;28;20018;-66
2023/12/24 12:30:30;;;;;;;0.10;0.10;;;11.20;99.90;;;;;;5020069;28;20029;-66
2023/12/24 12:32:56;;;;;;;0.20;0.10;;;11.10;99.90;;;;;;5020337;28;20042;-66
2023/12/24 12:35:22;;;;;;;0.20;0.20;;;11.10;99.90;;;;;;5022236;28;20041;-66
2023/12/24 12:37:47;;;;;;;0.10;0.10;;;11.10;99.90;;;;;;5030279;28;20045;-66
2023/12/24 12:40:13;;;;;;;0.03;0.00;;;11.10;99.90;;;;;;5024066;28;20030;-66
2023/12/24 12:42:39;;;;;;;0.10;0.10;;;11.10;99.90;;;;;;5010738;28;20733;-66
2023/12/24 12:45:08;;;;;;;0.10;0.10;;;11.10;99.90;;;;;;5004100;28;20038;-66
2023/12/24 12:47:34;;;;;;;0.10;0.10;;;11.10;99.90;;;;;;5025524;28;20025;-66
2023/12/24 12:50:00;;;;;;;0.00;0.00;;;11.10;99.90;;;;;;5006444;28;20503;-66
2023/12/24 12:52:26;;;;;;;0.65;0.47;;;11.10;99.90;;;;;;5009068;28;20538;-66
2023/12/24 13:17:22;;;;;;;0.00;0.00;;;11.10;99.90;;;;;;5026157;28;20041;-67
2023/12/24 13:19:50;;;;;;;0.75;0.30;;;11.10;99.90;;;;;;5030064;28;20127;-68
2023/12/24 13:22:16;;;;;;;0.32;0.15;;;11.10;99.90;;;;;;5011933;28;20167;-67
2023/12/24 13:24:42;;;;;;;0.00;0.00;;;11.10;99.90;;;;;;5023768;28;20075;-67
2023/12/24 13:27:08;;;;;;;0.10;0.10;;;11.20;99.90;;;;;;5009380;28;20144;-67
2023/12/24 13:29:37;;;;;;;0.10;0.10;;;11.20;99.90;;;;;;5024995;28;20496;-66
2023/12/24 13:32:03;;;;;;;0.32;0.32;;;11.10;99.90;;;;;;4990103;28;20021;-67
2023/12/24 13:34:29;;;;;;;0.03;0.03;;;11.10;99.90;;;;;;5024663;28;20037;-68
2023/12/24 13:36:55;;;;;;;0.45;0.20;;;11.10;99.90;;;;;;5023483;28;20358;-67
2023/12/24 13:39:24;;;;;;;0.20;0.10;;;11.20;99.90;;;;;;5022606;28;20043;-67
2023/12/24 13:41:50;;;;;;;0.03;0.03;;;11.10;99.90;;;;;;5029565;28;20456;-67
2023/12/24 13:44:16;;;;;;;0.30;0.25;;;11.20;99.90;;;;;;5026617;28;20041;-67
2023/12/24 13:46:42;;;;;;;0.00;0.00;;;11.20;99.90;;;;;;5028233;28;20099;-65
2023/12/24 13:49:08;;;;;;;0.98;0.17;;;11.20;99.90;;;;;;5031315;28;20482;-64
2023/12/24 13:51:34;;;;;;;0.52;0.10;;;11.10;99.90;;;;;;5029307;28;20021;-66
2023/12/24 13:54:01;;;;;;;0.00;0.00;;;11.20;99.90;;;;;;5013473;28;20442;-68
2023/12/24 13:56:27;;;;;;;0.10;0.10;;;11.20;99.90;;;;;;5012364;28;20040;-65
2023/12/24 13:58:53;;;;;;;1.85;0.10;;;11.10;99.90;;;;;;5013054;28;20029;-64
2023/12/24 14:01:19;;;;;;;0.08;0.08;;;11.10;99.90;;;;;;5028694;28;20114;-65
2023/12/24 14:03:44;;;;;;;0.10;0.10;;;11.10;99.90;;;;;;5030378;28;20037;-65
2023/12/24 14:06:10;;;;;;;0.05;0.05;;;11.10;99.90;;;;;;5028805;28;20069;-65
2023/12/24 14:08:37;;;;;;;0.10;0.10;;;11.10;99.90;;;;;;5030440;28;20040;-64
2023/12/24 14:11:03;;;;;;;0.00;0.00;;;11.20;99.90;;;;;;5029910;28;20032;-65
2023/12/24 14:13:30;;;;;;;0.00;0.00;;;11.10;99.90;;;;;;5014415;28;20026;-64
2023/12/24 14:15:59;;;;;;;1.75;0.20;;;11.00;99.90;;;;;;5033961;28;20036;-64
2023/12/24 14:18:24;;;;;;;0.00;0.00;;;11.00;99.90;;;;;;5032805;28;20500;-64
2023/12/24 14:20:50;;;;;;;1.25;0.10;;;11.00;99.90;;;;;;5033815;28;20120;-64
2023/12/24 14:23:16;;;;;;;0.10;0.10;;;10.90;99.90;;;;;;5016574;28;20483;-65
2023/12/24 14:25:42;;;;;;;0.00;0.00;;;10.90;99.90;;;;;;5032859;28;20049;-66
2023/12/24 14:28:08;;;;;;;0.00;0.00;;;10.70;99.90;;;;;;5026257;28;20116;-68
2023/12/24 14:30:34;;;;;;;0.10;0.10;;;10.60;99.90;;;;;;5023887;28;20450;-66
2023/12/24 14:33:00;;;;;;;0.03;0.03;;;10.60;99.90;;;;;;5032421;28;20025;-67
2023/12/24 14:35:26;;;;;;;0.68;0.13;;;10.40;99.90;;;;;;5032579;28;20116;-67
2023/12/24 14:37:52;;;;;;;0.00;0.00;;;10.40;99.90;;;;;;5016523;28;20037;-66
2023/12/24 14:40:20;;;;;;;0.00;0.00;;;10.30;99.90;;;;;;5015281;28;20025;-66
2023/12/24 14:42:45;;;;;;;0.00;0.00;;;10.40;99.90;;;;;;5015582;28;20037;-67
2023/12/24 14:45:12;;;;;;;0.43;0.25;;;10.40;99.90;;;;;;5032425;28;20037;-67
2023/12/24 14:47:37;;;;;;;0.10;0.10;;;10.40;99.90;;;;;;5032930;28;20491;-67
2023/12/24 14:50:04;;;;;;;0.03;0.03;;;10.50;99.90;;;;;;5034126;28;20057;-67
2023/12/24 14:52:30;;;;;;;0.20;0.20;;;10.50;99.90;;;;;;5029985;28;20034;-67
2023/12/24 14:54:56;;;;;;;0.10;0.10;;;10.40;99.90;;;;;;5034022;28;20033;-66
2023/12/24 14:57:26;;;;;;;0.10;0.10;;;10.50;99.90;;;;;;5033253;28;20037;-67
2023/12/24 14:59:54;;;;;;;0.20;0.10;;;10.50;99.90;;;;;;5033800;28;20037;-66
2023/12/24 15:02:20;;;;;;;0.52;0.35;;;10.50;99.90;;;;;;5031796;28;20481;-67
2023/12/24 15:04:46;;;;;;;11.60;3.95;;;10.60;99.90;;;;;;5033737;28;20033;-66
2023/12/24 15:07:12;;;;;;;0.85;0.50;;;10.60;99.90;;;;;;5032118;28;20485;-66
2023/12/24 15:09:37;;;;;;;1.63;0.57;;;10.60;99.90;;;;;;5033556;28;20025;-66
2023/12/24 15:12:03;;;;;;;0.85;0.55;;;10.60;99.90;;;;;;5013882;28;20041;-66